sensor_id;sensor_type;location;lat;lon;timestamp;pressure;altitude;pressure_sealevel;temperature
20730;BMP280;10526;50.850;12.928;2022-12-07T00:03:30;97669.16;;;1.77
20730;BMP280;10526;50.850;12.928;2022-12-07T00:07:52;97668.06;;;1.78
20730;BMP280;10526;50.850;12.928;2022-12-07T00:12:14;97661.38;;;1.81
20730;BMP280;10526;50.850;12.928;2022-12-07T00:16:36;97656.13;;;1.81
20730;BMP280;10526;50.850;12.928;2022-12-07T00:21:10;97644.19;;;1.83
20730;BMP280;10526;50.850;12.928;2022-12-07T00:25:33;97639.38;;;1.85
20730;BMP280;10526;50.850;12.928;2022-12-07T00:29:55;97630.97;;;1.80
20730;BMP280;10526;50.850;12.928;2022-12-07T00:34:19;97631.22;;;1.75
20730;BMP280;10526;50.850;12.928;2022-12-07T00:38:42;97631.91;;;1.71
20730;BMP280;10526;50.850;12.928;2022-12-07T00:43:04;97625.97;;;1.75
20730;BMP280;10526;50.850;12.928;2022-12-07T00:47:26;97631.22;;;1.75
20730;BMP280;10526;50.850;12.928;2022-12-07T00:51:49;97628.16;;;1.72
20730;BMP280;10526;50.850;12.928;2022-12-07T00:56:14;97624.47;;;1.73
20730;BMP280;10526;50.850;12.928;2022-12-07T01:00:38;97627.50;;;1.76
20730;BMP280;10526;50.850;12.928;2022-12-07T01:05:01;97624.47;;;1.73
20730;BMP280;10526;50.850;12.928;2022-12-07T01:09:23;97613.88;;;1.70
20730;BMP280;10526;50.850;12.928;2022-12-07T01:13:45;97617.16;;;1.67
20730;BMP280;10526;50.850;12.928;2022-12-07T01:18:07;97617.41;;;1.62
20730;BMP280;10526;50.850;12.928;2022-12-07T01:22:29;97625.97;;;1.59
20730;BMP280;10526;50.850;12.928;2022-12-07T01:26:51;97620.19;;;1.53
20730;BMP280;10526;50.850;12.928;2022-12-07T01:31:19;97625.84;;;1.39
20730;BMP280;10526;50.850;12.928;2022-12-07T01:35:43;97617.28;;;1.27
20730;BMP280;10526;50.850;12.928;2022-12-07T01:40:07;97614.31;;;1.12
20730;BMP280;10526;50.850;12.928;2022-12-07T01:44:30;97608.22;;;0.96
20730;BMP280;10526;50.850;12.928;2022-12-07T01:48:54;97605.19;;;0.94
20730;BMP280;10526;50.850;12.928;2022-12-07T01:53:16;97610.44;;;0.94
20730;BMP280;10526;50.850;12.928;2022-12-07T01:57:48;97604.09;;;0.95
20730;BMP280;10526;50.850;12.928;2022-12-07T02:02:20;97601.72;;;0.90
20730;BMP280;10526;50.850;12.928;2022-12-07T02:06:48;97592.78;;;0.79
20730;BMP280;10526;50.850;12.928;2022-12-07T02:11:10;97594.78;;;0.69
20730;BMP280;10526;50.850;12.928;2022-12-07T02:15:48;97600.44;;;0.71
20730;BMP280;10526;50.850;12.928;2022-12-07T02:20:33;97593.25;;;0.68
20730;BMP280;10526;50.850;12.928;2022-12-07T02:30:17;97582.63;;;0.37
20730;BMP280;10526;50.850;12.928;2022-12-07T02:39:20;97570.13;;;0.18
20730;BMP280;10526;50.850;12.928;2022-12-07T02:44:08;97571.34;;;0.08
20730;BMP280;10526;50.850;12.928;2022-12-07T02:48:33;97550.63;;;0.03
20730;BMP280;10526;50.850;12.928;2022-12-07T02:52:55;97555.44;;;0.01
20730;BMP280;10526;50.850;12.928;2022-12-07T03:02:21;97560.97;;;-0.13
20730;BMP280;10526;50.850;12.928;2022-12-07T03:06:57;97558.91;;;-0.19
20730;BMP280;10526;50.850;12.928;2022-12-07T03:11:48;97564.47;;;-0.21
20730;BMP280;10526;50.850;12.928;2022-12-07T03:16:22;97552.72;;;-0.15
20730;BMP280;10526;50.850;12.928;2022-12-07T03:20:47;97556.19;;;-0.11
20730;BMP280;10526;50.850;12.928;2022-12-07T03:25:15;97545.94;;;-0.04
20730;BMP280;10526;50.850;12.928;2022-12-07T03:29:45;97544.97;;;0.01
20730;BMP280;10526;50.850;12.928;2022-12-07T03:39:22;97542.75;;;0.03
20730;BMP280;10526;50.850;12.928;2022-12-07T03:43:46;97534.03;;;-0.01
20730;BMP280;10526;50.850;12.928;2022-12-07T03:48:20;97543.44;;;0.00
20730;BMP280;10526;50.850;12.928;2022-12-07T03:52:55;97543.84;;;0.02
20730;BMP280;10526;50.850;12.928;2022-12-07T03:57:19;97529.38;;;0.05
20730;BMP280;10526;50.850;12.928;2022-12-07T04:01:44;97524.22;;;0.08
20730;BMP280;10526;50.850;12.928;2022-12-07T04:06:12;97516.38;;;0.08
20730;BMP280;10526;50.850;12.928;2022-12-07T04:10:35;97513.75;;;0.08
20730;BMP280;10526;50.850;12.928;2022-12-07T04:14:56;97509.41;;;0.12
20730;BMP280;10526;50.850;12.928;2022-12-07T04:19:22;97505.78;;;0.17
20730;BMP280;10526;50.850;12.928;2022-12-07T04:23:44;97489.06;;;0.21
20730;BMP280;10526;50.850;12.928;2022-12-07T04:28:06;97489.53;;;0.23
20730;BMP280;10526;50.850;12.928;2022-12-07T04:32:29;97490.28;;;0.24
20730;BMP280;10526;50.850;12.928;2022-12-07T04:36:51;97476.63;;;0.18
20730;BMP280;10526;50.850;12.928;2022-12-07T04:41:13;97480.81;;;0.07
20730;BMP280;10526;50.850;12.928;2022-12-07T04:45:35;97480.06;;;-0.06
20730;BMP280;10526;50.850;12.928;2022-12-07T04:49:57;97470.84;;;-0.15
20730;BMP280;10526;50.850;12.928;2022-12-07T04:54:19;97472.34;;;-0.14
20730;BMP280;10526;50.850;12.928;2022-12-07T04:58:43;97462.19;;;-0.16
20730;BMP280;10526;50.850;12.928;2022-12-07T05:03:05;97456.19;;;-0.04
20730;BMP280;10526;50.850;12.928;2022-12-07T05:07:27;97465.97;;;0.11
20730;BMP280;10526;50.850;12.928;2022-12-07T05:11:49;97472.38;;;0.26
20730;BMP280;10526;50.850;12.928;2022-12-07T05:16:11;97469.34;;;0.40
20730;BMP280;10526;50.850;12.928;2022-12-07T05:20:33;97468.53;;;0.52
20730;BMP280;10526;50.850;12.928;2022-12-07T05:25:02;97466.63;;;0.64
20730;BMP280;10526;50.850;12.928;2022-12-07T05:29:24;97454.81;;;0.70
20730;BMP280;10526;50.850;12.928;2022-12-07T05:33:46;97458.53;;;0.69
20730;BMP280;10526;50.850;12.928;2022-12-07T05:38:08;97456.53;;;0.79
20730;BMP280;10526;50.850;12.928;2022-12-07T05:42:31;97455.50;;;0.83
20730;BMP280;10526;50.850;12.928;2022-12-07T05:46:53;97446.22;;;0.86
20730;BMP280;10526;50.850;12.928;2022-12-07T05:51:15;97449.25;;;0.88
20730;BMP280;10526;50.850;12.928;2022-12-07T05:55:37;97448.19;;;0.89
20730;BMP280;10526;50.850;12.928;2022-12-07T05:59:59;97453.16;;;0.94
20730;BMP280;10526;50.850;12.928;2022-12-07T06:04:22;97452.06;;;0.95
20730;BMP280;10526;50.850;12.928;2022-12-07T06:08:44;97445.66;;;0.92
20730;BMP280;10526;50.850;12.928;2022-12-07T06:13:06;97453.16;;;0.94
20730;BMP280;10526;50.850;12.928;2022-12-07T06:17:28;97442.75;;;0.97
20730;BMP280;10526;50.850;12.928;2022-12-07T06:21:50;97439.78;;;0.99
20730;BMP280;10526;50.850;12.928;2022-12-07T06:26:12;97450.91;;;1.08
20730;BMP280;10526;50.850;12.928;2022-12-07T06:30:33;97447.50;;;1.08
20730;BMP280;10526;50.850;12.928;2022-12-07T06:34:55;97450.94;;;0.96
20730;BMP280;10526;50.850;12.928;2022-12-07T06:39:19;97441.16;;;0.93
20730;BMP280;10526;50.850;12.928;2022-12-07T06:43:41;97428.06;;;0.93
20730;BMP280;10526;50.850;12.928;2022-12-07T06:48:04;97446.41;;;0.93
20730;BMP280;10526;50.850;12.928;2022-12-07T06:52:25;97452.81;;;0.95
20730;BMP280;10526;50.850;12.928;2022-12-07T06:56:47;97447.00;;;1.02
20730;BMP280;10526;50.850;12.928;2022-12-07T07:01:15;97462.13;;;1.09
20730;BMP280;10526;50.850;12.928;2022-12-07T07:05:38;97460.38;;;1.13
20730;BMP280;10526;50.850;12.928;2022-12-07T07:10:00;97464.25;;;1.19
20730;BMP280;10526;50.850;12.928;2022-12-07T07:14:24;97474.16;;;1.26
20730;BMP280;10526;50.850;12.928;2022-12-07T07:18:46;97469.00;;;1.29
20730;BMP280;10526;50.850;12.928;2022-12-07T07:23:08;97473.63;;;1.36
20730;BMP280;10526;50.850;12.928;2022-12-07T07:27:30;97474.19;;;1.45
20730;BMP280;10526;50.850;12.928;2022-12-07T07:31:51;97475.78;;;1.49
20730;BMP280;10526;50.850;12.928;2022-12-07T07:36:13;97479.69;;;1.56
20730;BMP280;10526;50.850;12.928;2022-12-07T07:40:36;97479.50;;;1.64
20730;BMP280;10526;50.850;12.928;2022-12-07T07:44:58;97474.84;;;1.73
20730;BMP280;10526;50.850;12.928;2022-12-07T07:49:20;97478.47;;;1.85
20730;BMP280;10526;50.850;12.928;2022-12-07T07:53:42;97483.22;;;1.98
20730;BMP280;10526;50.850;12.928;2022-12-07T07:58:04;97484.34;;;1.97
20730;BMP280;10526;50.850;12.928;2022-12-07T08:02:26;97488.81;;;1.97
20730;BMP280;10526;50.850;12.928;2022-12-07T08:06:51;97490.00;;;1.99
20730;BMP280;10526;50.850;12.928;2022-12-07T08:11:12;97484.06;;;2.03
20730;BMP280;10526;50.850;12.928;2022-12-07T08:15:38;97494.03;;;2.13
20730;BMP280;10526;50.850;12.928;2022-12-07T08:20:00;97485.41;;;2.12
20730;BMP280;10526;50.850;12.928;2022-12-07T08:24:24;97499.50;;;2.04
20730;BMP280;10526;50.850;12.928;2022-12-07T08:28:46;97485.66;;;2.07
20730;BMP280;10526;50.850;12.928;2022-12-07T08:33:10;97474.53;;;2.53
20730;BMP280;10526;50.850;12.928;2022-12-07T08:37:33;97494.91;;;3.24
20730;BMP280;10526;50.850;12.928;2022-12-07T08:41:54;97496.75;;;3.77
20730;BMP280;10526;50.850;12.928;2022-12-07T08:46:39;97498.81;;;3.91
20730;BMP280;10526;50.850;12.928;2022-12-07T08:51:03;97493.91;;;4.57
20730;BMP280;10526;50.850;12.928;2022-12-07T08:55:25;97510.50;;;4.61
20730;BMP280;10526;50.850;12.928;2022-12-07T08:59:48;97491.34;;;4.26
20730;BMP280;10526;50.850;12.928;2022-12-07T09:04:10;97509.69;;;4.16
20730;BMP280;10526;50.850;12.928;2022-12-07T09:08:40;97511.84;;;4.10
20730;BMP280;10526;50.850;12.928;2022-12-07T09:13:03;97493.94;;;4.23
20730;BMP280;10526;50.850;12.928;2022-12-07T09:17:25;97492.78;;;4.20
20730;BMP280;10526;50.850;12.928;2022-12-07T09:21:47;97500.59;;;4.13
20730;BMP280;10526;50.850;12.928;2022-12-07T09:26:09;97499.47;;;4.85
20730;BMP280;10526;50.850;12.928;2022-12-07T09:30:32;97505.66;;;7.03
20730;BMP280;10526;50.850;12.928;2022-12-07T09:35:13;97511.97;;;7.70
20730;BMP280;10526;50.850;12.928;2022-12-07T09:39:38;97505.53;;;7.63
20730;BMP280;10526;50.850;12.928;2022-12-07T09:44:17;97505.66;;;6.96
20730;BMP280;10526;50.850;12.928;2022-12-07T09:48:40;97504.50;;;6.65
20730;BMP280;10526;50.850;12.928;2022-12-07T09:53:26;97508.16;;;6.14
20730;BMP280;10526;50.850;12.928;2022-12-07T09:57:49;97473.97;;;5.59
20730;BMP280;10526;50.850;12.928;2022-12-07T10:02:39;97487.53;;;5.02
20730;BMP280;10526;50.850;12.928;2022-12-07T10:07:03;97483.53;;;4.74
20730;BMP280;10526;50.850;12.928;2022-12-07T10:11:25;97467.97;;;4.62
20730;BMP280;10526;50.850;12.928;2022-12-07T10:15:52;97468.97;;;4.47
20730;BMP280;10526;50.850;12.928;2022-12-07T10:20:26;97467.13;;;4.51
20730;BMP280;10526;50.850;12.928;2022-12-07T10:24:48;97470.97;;;4.57
20730;BMP280;10526;50.850;12.928;2022-12-07T10:29:36;97458.94;;;4.63
20730;BMP280;10526;50.850;12.928;2022-12-07T10:34:00;97459.38;;;4.69
20730;BMP280;10526;50.850;12.928;2022-12-07T10:38:25;97466.59;;;4.79
20730;BMP280;10526;50.850;12.928;2022-12-07T10:43:18;97457.06;;;4.64
20730;BMP280;10526;50.850;12.928;2022-12-07T10:48:16;97459.22;;;4.51
20730;BMP280;10526;50.850;12.928;2022-12-07T11:36:50;97440.16;;;4.68
20730;BMP280;10526;50.850;12.928;2022-12-07T11:41:14;97437.13;;;4.66
20730;BMP280;10526;50.850;12.928;2022-12-07T11:45:42;97427.94;;;4.49
20730;BMP280;10526;50.850;12.928;2022-12-07T11:55:02;97419.47;;;4.30
20730;BMP280;10526;50.850;12.928;2022-12-07T11:59:39;97416.16;;;4.36
20730;BMP280;10526;50.850;12.928;2022-12-07T12:24:05;97400.56;;;4.65
20730;BMP280;10526;50.850;12.928;2022-12-07T12:28:36;97393.81;;;4.67
20730;BMP280;10526;50.850;12.928;2022-12-07T12:33:30;97398.63;;;4.55
20730;BMP280;10526;50.850;12.928;2022-12-07T12:37:54;97389.91;;;4.50
20730;BMP280;10526;50.850;12.928;2022-12-07T12:42:19;97397.78;;;4.47
20730;BMP280;10526;50.850;12.928;2022-12-07T12:47:02;97389.03;;;4.36
20730;BMP280;10526;50.850;12.928;2022-12-07T12:51:40;97387.41;;;4.24
20730;BMP280;10526;50.850;12.928;2022-12-07T12:56:21;97380.66;;;4.26
20730;BMP280;10526;50.850;12.928;2022-12-07T13:01:33;97379.63;;;4.35
20730;BMP280;10526;50.850;12.928;2022-12-07T13:05:30;97378.94;;;4.45
20730;BMP280;10526;50.850;12.928;2022-12-07T13:09:52;97377.16;;;4.56
20730;BMP280;10526;50.850;12.928;2022-12-07T13:14:57;97371.97;;;4.67
20730;BMP280;10526;50.850;12.928;2022-12-07T13:24:08;97371.09;;;4.52
20730;BMP280;10526;50.850;12.928;2022-12-07T13:28:46;97373.34;;;4.50
20730;BMP280;10526;50.850;12.928;2022-12-07T13:33:09;97378.28;;;4.55
20730;BMP280;10526;50.850;12.928;2022-12-07T13:37:33;97370.38;;;4.59
20730;BMP280;10526;50.850;12.928;2022-12-07T13:41:59;97366.59;;;4.56
20730;BMP280;10526;50.850;12.928;2022-12-07T13:51:22;97372.66;;;4.60
20730;BMP280;10526;50.850;12.928;2022-12-07T13:55:45;97367.03;;;4.58
20730;BMP280;10526;50.850;12.928;2022-12-07T14:00:28;97368.16;;;4.57
20730;BMP280;10526;50.850;12.928;2022-12-07T14:04:51;97370.34;;;4.51
20730;BMP280;10526;50.850;12.928;2022-12-07T14:09:25;97359.38;;;4.46
20730;BMP280;10526;50.850;12.928;2022-12-07T14:14:01;97363.84;;;4.38
20730;BMP280;10526;50.850;12.928;2022-12-07T14:18:37;97355.06;;;4.27
20730;BMP280;10526;50.850;12.928;2022-12-07T14:22:59;97354.25;;;4.19
20730;BMP280;10526;50.850;12.928;2022-12-07T14:27:33;97359.50;;;4.16
20730;BMP280;10526;50.850;12.928;2022-12-07T14:36:39;97367.44;;;4.23
20730;BMP280;10526;50.850;12.928;2022-12-07T14:41:00;97365.19;;;4.25
20730;BMP280;10526;50.850;12.928;2022-12-07T14:45:42;97362.53;;;4.21
20730;BMP280;10526;50.850;12.928;2022-12-07T14:50:05;97369.25;;;4.12
20730;BMP280;10526;50.850;12.928;2022-12-07T14:54:31;97371.03;;;4.04
20730;BMP280;10526;50.850;12.928;2022-12-07T14:58:54;97372.88;;;4.00
20730;BMP280;10526;50.850;12.928;2022-12-07T15:03:16;97368.25;;;3.90
20730;BMP280;10526;50.850;12.928;2022-12-07T15:07:38;97367.00;;;3.80
20730;BMP280;10526;50.850;12.928;2022-12-07T15:12:00;97371.13;;;3.78
20730;BMP280;10526;50.850;12.928;2022-12-07T15:16:21;97377.88;;;3.75
20730;BMP280;10526;50.850;12.928;2022-12-07T15:20:44;97386.06;;;3.66
20730;BMP280;10526;50.850;12.928;2022-12-07T15:25:07;97377.34;;;3.62
20730;BMP280;10526;50.850;12.928;2022-12-07T15:29:29;97380.59;;;3.52
20730;BMP280;10526;50.850;12.928;2022-12-07T15:33:50;97388.38;;;3.41
20730;BMP280;10526;50.850;12.928;2022-12-07T15:38:13;97380.41;;;3.38
20730;BMP280;10526;50.850;12.928;2022-12-07T15:42:38;97380.03;;;3.36
20730;BMP280;10526;50.850;12.928;2022-12-07T15:47:00;97378.84;;;3.33
20730;BMP280;10526;50.850;12.928;2022-12-07T15:51:22;97385.59;;;3.31
20730;BMP280;10526;50.850;12.928;2022-12-07T15:55:45;97375.34;;;3.25
20730;BMP280;10526;50.850;12.928;2022-12-07T16:00:08;97375.00;;;3.23
20730;BMP280;10526;50.850;12.928;2022-12-07T16:04:31;97377.63;;;3.23
20730;BMP280;10526;50.850;12.928;2022-12-07T16:08:53;97371.25;;;3.24
20730;BMP280;10526;50.850;12.928;2022-12-07T16:13:16;97372.66;;;3.18
20730;BMP280;10526;50.850;12.928;2022-12-07T16:17:41;97377.50;;;3.16
20730;BMP280;10526;50.850;12.928;2022-12-07T16:22:04;97365.75;;;3.10
20730;BMP280;10526;50.850;12.928;2022-12-07T16:26:26;97378.47;;;3.05
20730;BMP280;10526;50.850;12.928;2022-12-07T16:30:48;97379.91;;;3.02
20730;BMP280;10526;50.850;12.928;2022-12-07T16:35:11;97383.72;;;3.05
20730;BMP280;10526;50.850;12.928;2022-12-07T16:39:33;97386.00;;;3.06
20730;BMP280;10526;50.850;12.928;2022-12-07T16:43:56;97379.63;;;3.07
20730;BMP280;10526;50.850;12.928;2022-12-07T16:48:18;97375.03;;;3.01
20730;BMP280;10526;50.850;12.928;2022-12-07T16:52:40;97385.03;;;2.91
20730;BMP280;10526;50.850;12.928;2022-12-07T16:57:03;97382.66;;;2.83
20730;BMP280;10526;50.850;12.928;2022-12-07T17:01:27;97378.78;;;2.77
20730;BMP280;10526;50.850;12.928;2022-12-07T17:05:50;97383.94;;;2.69
20730;BMP280;10526;50.850;12.928;2022-12-07T17:10:12;97383.09;;;2.62
20730;BMP280;10526;50.850;12.928;2022-12-07T17:14:34;97378.09;;;2.57
20730;BMP280;10526;50.850;12.928;2022-12-07T17:19:16;97393.47;;;2.55
20730;BMP280;10526;50.850;12.928;2022-12-07T17:23:38;97390.44;;;2.53
20730;BMP280;10526;50.850;12.928;2022-12-07T17:28:00;97383.25;;;2.49
20730;BMP280;10526;50.850;12.928;2022-12-07T17:32:22;97380.22;;;2.47
20730;BMP280;10526;50.850;12.928;2022-12-07T17:36:44;97375.72;;;2.48
20730;BMP280;10526;50.850;12.928;2022-12-07T17:41:27;97374.88;;;2.44
20730;BMP280;10526;50.850;12.928;2022-12-07T17:46:08;97379.69;;;2.38
20730;BMP280;10526;50.850;12.928;2022-12-07T17:50:30;97381.19;;;2.39
20730;BMP280;10526;50.850;12.928;2022-12-07T17:55:11;97388.38;;;2.42
20730;BMP280;10526;50.850;12.928;2022-12-07T17:59:33;97391.84;;;2.46
20730;BMP280;10526;50.850;12.928;2022-12-07T18:03:56;97397.09;;;2.46
20730;BMP280;10526;50.850;12.928;2022-12-07T18:08:17;97394.53;;;2.50
20730;BMP280;10526;50.850;12.928;2022-12-07T18:12:40;97384.47;;;2.56
20730;BMP280;10526;50.850;12.928;2022-12-07T18:17:02;97382.28;;;2.58
20730;BMP280;10526;50.850;12.928;2022-12-07T18:21:27;97386.75;;;2.57
20730;BMP280;10526;50.850;12.928;2022-12-07T18:25:50;97384.19;;;2.61
20730;BMP280;10526;50.850;12.928;2022-12-07T18:30:12;97380.09;;;2.63
20730;BMP280;10526;50.850;12.928;2022-12-07T18:34:34;97379.72;;;2.61
20730;BMP280;10526;50.850;12.928;2022-12-07T18:38:56;97385.38;;;2.63
20730;BMP280;10526;50.850;12.928;2022-12-07T18:43:19;97377.88;;;2.65
20730;BMP280;10526;50.850;12.928;2022-12-07T18:47:40;97372.66;;;2.69
20730;BMP280;10526;50.850;12.928;2022-12-07T18:52:03;97379.44;;;2.70
20730;BMP280;10526;50.850;12.928;2022-12-07T18:56:25;97364.81;;;2.72
20730;BMP280;10526;50.850;12.928;2022-12-07T19:00:47;97362.91;;;2.69
20730;BMP280;10526;50.850;12.928;2022-12-07T19:05:09;97379.03;;;2.68
20730;BMP280;10526;50.850;12.928;2022-12-07T19:09:31;97376.38;;;2.64
20730;BMP280;10526;50.850;12.928;2022-12-07T19:13:53;97373.34;;;2.62
20730;BMP280;10526;50.850;12.928;2022-12-07T19:18:15;97374.84;;;2.63
20730;BMP280;10526;50.850;12.928;2022-12-07T19:22:37;97366.56;;;2.61
20730;BMP280;10526;50.850;12.928;2022-12-07T19:26:59;97379.78;;;2.68
20730;BMP280;10526;50.850;12.928;2022-12-07T19:31:21;97365.53;;;2.69
20730;BMP280;10526;50.850;12.928;2022-12-07T19:35:44;97364.00;;;2.68
20730;BMP280;10526;50.850;12.928;2022-12-07T19:40:06;97364.75;;;2.69
20730;BMP280;10526;50.850;12.928;2022-12-07T19:44:28;97355.72;;;2.66
20730;BMP280;10526;50.850;12.928;2022-12-07T19:48:51;97362.81;;;2.62
20730;BMP280;10526;50.850;12.928;2022-12-07T19:53:16;97352.94;;;2.56
20730;BMP280;10526;50.850;12.928;2022-12-07T19:57:39;97353.56;;;2.49
20730;BMP280;10526;50.850;12.928;2022-12-07T20:02:01;97346.00;;;2.44
20730;BMP280;10526;50.850;12.928;2022-12-07T20:06:23;97353.50;;;2.45
20730;BMP280;10526;50.850;12.928;2022-12-07T20:10:46;97351.25;;;2.44
20730;BMP280;10526;50.850;12.928;2022-12-07T20:15:27;97350.50;;;2.43
20730;BMP280;10526;50.850;12.928;2022-12-07T20:19:49;97342.25;;;2.45
20730;BMP280;10526;50.850;12.928;2022-12-07T20:24:15;97351.78;;;2.53
20730;BMP280;10526;50.850;12.928;2022-12-07T20:28:41;97343.63;;;2.58
20730;BMP280;10526;50.850;12.928;2022-12-07T20:33:06;97335.38;;;2.60
20730;BMP280;10526;50.850;12.928;2022-12-07T20:37:31;97343.31;;;2.63
20730;BMP280;10526;50.850;12.928;2022-12-07T20:41:54;97338.09;;;2.67
20730;BMP280;10526;50.850;12.928;2022-12-07T20:46:35;97327.63;;;2.70
20730;BMP280;10526;50.850;12.928;2022-12-07T20:51:04;97339.66;;;2.71
20730;BMP280;10526;50.850;12.928;2022-12-07T20:55:26;97329.13;;;2.71
20730;BMP280;10526;50.850;12.928;2022-12-07T20:59:49;97328.03;;;2.72
20730;BMP280;10526;50.850;12.928;2022-12-07T21:04:18;97329.19;;;2.75
20730;BMP280;10526;50.850;12.928;2022-12-07T21:08:59;97326.22;;;2.77
20730;BMP280;10526;50.850;12.928;2022-12-07T21:13:21;97321.72;;;2.77
20730;BMP280;10526;50.850;12.928;2022-12-07T21:17:47;97324.81;;;2.83
20730;BMP280;10526;50.850;12.928;2022-12-07T21:22:09;97320.25;;;2.80
20730;BMP280;10526;50.850;12.928;2022-12-07T21:26:34;97324.31;;;2.73
20730;BMP280;10526;50.850;12.928;2022-12-07T21:30:58;97321.56;;;2.66
20730;BMP280;10526;50.850;12.928;2022-12-07T21:35:37;97311.03;;;2.63
20730;BMP280;10526;50.850;12.928;2022-12-07T21:40:04;97311.66;;;2.56
20730;BMP280;10526;50.850;12.928;2022-12-07T21:44:29;97317.97;;;2.52
20730;BMP280;10526;50.850;12.928;2022-12-07T21:48:55;97317.44;;;2.42
20730;BMP280;10526;50.850;12.928;2022-12-07T21:53:24;97311.31;;;2.35
20730;BMP280;10526;50.850;12.928;2022-12-07T21:57:46;97313.88;;;2.31
20730;BMP280;10526;50.850;12.928;2022-12-07T22:02:13;97315.34;;;2.29
20730;BMP280;10526;50.850;12.928;2022-12-07T22:06:39;97325.78;;;2.25
20730;BMP280;10526;50.850;12.928;2022-12-07T22:11:01;97316.06;;;2.26
20730;BMP280;10526;50.850;12.928;2022-12-07T22:15:28;97315.78;;;2.31
20730;BMP280;10526;50.850;12.928;2022-12-07T22:19:57;97304.13;;;2.32
20730;BMP280;10526;50.850;12.928;2022-12-07T22:24:20;97327.00;;;2.31
20730;BMP280;10526;50.850;12.928;2022-12-07T22:28:45;97310.53;;;2.31
20730;BMP280;10526;50.850;12.928;2022-12-07T22:33:08;97312.72;;;2.29
20730;BMP280;10526;50.850;12.928;2022-12-07T22:37:39;97308.16;;;2.26
20730;BMP280;10526;50.850;12.928;2022-12-07T22:42:01;97310.41;;;2.23
20730;BMP280;10526;50.850;12.928;2022-12-07T22:46:24;97308.84;;;2.22
20730;BMP280;10526;50.850;12.928;2022-12-07T22:50:46;97305.84;;;2.20
20730;BMP280;10526;50.850;12.928;2022-12-07T22:55:11;97303.22;;;2.20
20730;BMP280;10526;50.850;12.928;2022-12-07T22:59:33;97284.88;;;2.24
20730;BMP280;10526;50.850;12.928;2022-12-07T23:03:59;97292.50;;;2.33
20730;BMP280;10526;50.850;12.928;2022-12-07T23:08:24;97285.81;;;2.35
20730;BMP280;10526;50.850;12.928;2022-12-07T23:12:46;97283.63;;;2.41
20730;BMP280;10526;50.850;12.928;2022-12-07T23:17:27;97277.69;;;2.44
20730;BMP280;10526;50.850;12.928;2022-12-07T23:21:49;97277.75;;;2.47
20730;BMP280;10526;50.850;12.928;2022-12-07T23:26:14;97270.66;;;2.52
20730;BMP280;10526;50.850;12.928;2022-12-07T23:30:36;97268.84;;;2.56
20730;BMP280;10526;50.850;12.928;2022-12-07T23:34:59;97271.91;;;2.58
20730;BMP280;10526;50.850;12.928;2022-12-07T23:39:25;97259.50;;;2.58
20730;BMP280;10526;50.850;12.928;2022-12-07T23:43:47;97260.59;;;2.57
20730;BMP280;10526;50.850;12.928;2022-12-07T23:48:09;97253.09;;;2.56
20730;BMP280;10526;50.850;12.928;2022-12-07T23:52:31;97253.03;;;2.52
20730;BMP280;10526;50.850;12.928;2022-12-07T23:56:57;97246.56;;;2.46
